Andesborg — PCLC — position and weather

sailwx.info

Track history (hours):
 
Tides and Currents Weather Stations Pressure Air Temp Water Temp Dewpoint Dewpoint Depression Visibility Wind Speed Wind Dir Waves Ship Positions

Andesborg

Last reported at 2018-Feb-17 01:37 UTC. Time now 2018-Feb-19 16:16 UTC.
Position N 12°02' W 075°33'.

Length 142 m; draft 6.2 m.

Type: Ship. MMSI: 246797000.

Date/timePositionNaut miles runAvg speedWind from/ knotsBaromVisibWave heightAir tempDewpointWater temp
2018-Feb-17 01:37N 12°02' W 075°33'411.0
2018-Feb-17 01:17N 11°59' W 075°33'510.5
2018-Feb-17 00:48N 11°54' W 075°33'410.8
2018-Feb-17 00:25N 11°49' W 075°34'410.6
2018-Feb-17 00:00N 11°45' W 075°34'2010.3
2018-Feb-16 22:00N 11°25' W 075°36'510.2
2018-Feb-16 21:29N 11°19' W 075°37'510.4
2018-Feb-16 21:00N 11°14' W 075°37'710.2
2018-Feb-16 20:17N 11°07' W 075°38'1010.7
2018-Feb-16 19:21N 10°57' W 075°39'410.9
2018-Feb-16 18:59N 10°53' W 075°40'510.8
2018-Feb-16 18:30N 10°48' W 075°40'611.4
2018-Feb-16 18:00N 10°42' W 075°41'711.3
2018-Feb-16 17:25N 10°36' W 075°41'511.5
2018-Feb-16 16:59N 10°31' W 075°42'711.7
2018-Feb-16 16:24N 10°24' W 075°43'410.2
2018-Feb-16 15:59N 10°20' W 075°41'9 0.4
2018-Feb-15 19:09N 10°17' W 075°32'0 0.0
2018-Feb-15 19:00N 10°17' W 075°32'0 0.0
2018-Feb-15 17:58N 10°17' W 075°32'0 0.0
2018-Feb-15 17:29N 10°17' W 075°32'0 0.0
2018-Feb-15 17:00N 10°17' W 075°32'0 0.0
2018-Feb-15 16:30N 10°17' W 075°32'0 0.0
2018-Feb-15 16:00N 10°17' W 075°32'0 0.0
2018-Feb-15 15:31N 10°17' W 075°32'0 0.0
2018-Feb-15 15:00N 10°17' W 075°32'0 0.0
2018-Feb-15 14:30N 10°17' W 075°32'0 0.0
2018-Feb-15 14:00N 10°17' W 075°32'0 0.0
2018-Feb-15 13:30N 10°17' W 075°32'0 0.0
2018-Feb-15 13:00N 10°17' W 075°32'0 0.0
2018-Feb-15 12:30N 10°17' W 075°32'0 0.0
2018-Feb-15 12:01N 10°17' W 075°32'0 0.0
2018-Feb-15 11:30N 10°17' W 075°32'0 0.0
2018-Feb-15 11:00N 10°17' W 075°32'0 0.0
2018-Feb-15 10:26N 10°17' W 075°32'  
Track history (hours):
 
Tides and Currents Weather Stations Pressure Air Temp Water Temp Dewpoint Dewpoint Depression Visibility Wind Speed Wind Dir Waves Ship Positions

Andesborg

Last reported at 2018-Feb-17 01:37 UTC. Time now 2018-Feb-19 16:16 UTC.
Position N 12°02' W 075°33'.

Length 142 m; draft 6.2 m.

Type: Ship. MMSI: 246797000.

Date/timePositionNaut miles runAvg speedWind from/ knotsBaromVisibWave heightAir tempDewpointWater temp
2018-Feb-17 01:37N 12°02' W 075°33'411.0
2018-Feb-17 01:17N 11°59' W 075°33'510.5
2018-Feb-17 00:48N 11°54' W 075°33'410.8
2018-Feb-17 00:25N 11°49' W 075°34'410.6
2018-Feb-17 00:00N 11°45' W 075°34'2010.3
2018-Feb-16 22:00N 11°25' W 075°36'510.2
2018-Feb-16 21:29N 11°19' W 075°37'510.4
2018-Feb-16 21:00N 11°14' W 075°37'710.2
2018-Feb-16 20:17N 11°07' W 075°38'1010.7
2018-Feb-16 19:21N 10°57' W 075°39'410.9
2018-Feb-16 18:59N 10°53' W 075°40'510.8
2018-Feb-16 18:30N 10°48' W 075°40'611.4
2018-Feb-16 18:00N 10°42' W 075°41'711.3
2018-Feb-16 17:25N 10°36' W 075°41'511.5
2018-Feb-16 16:59N 10°31' W 075°42'711.7
2018-Feb-16 16:24N 10°24' W 075°43'410.2
2018-Feb-16 15:59N 10°20' W 075°41'9 0.4
2018-Feb-15 19:09N 10°17' W 075°32'0 0.0
2018-Feb-15 19:00N 10°17' W 075°32'0 0.0
2018-Feb-15 17:58N 10°17' W 075°32'0 0.0
2018-Feb-15 17:29N 10°17' W 075°32'0 0.0
2018-Feb-15 17:00N 10°17' W 075°32'0 0.0
2018-Feb-15 16:30N 10°17' W 075°32'0 0.0
2018-Feb-15 16:00N 10°17' W 075°32'0 0.0
2018-Feb-15 15:31N 10°17' W 075°32'0 0.0
2018-Feb-15 15:00N 10°17' W 075°32'0 0.0
2018-Feb-15 14:30N 10°17' W 075°32'0 0.0
2018-Feb-15 14:00N 10°17' W 075°32'0 0.0
2018-Feb-15 13:30N 10°17' W 075°32'0 0.0
2018-Feb-15 13:00N 10°17' W 075°32'0 0.0
2018-Feb-15 12:30N 10°17' W 075°32'0 0.0
2018-Feb-15 12:01N 10°17' W 075°32'0 0.0
2018-Feb-15 11:30N 10°17' W 075°32'0 0.0
2018-Feb-15 11:00N 10°17' W 075°32'0 0.0
2018-Feb-15 10:26N 10°17' W 075°32'  

Dump ship's entire track history